METAR Data
IDs: Format: Raw Decoded Include TAF

Data at: 1304 UTC 11 Dec 2018

KLNC 111255Z AUTO 00000KT 10SM CLR 01/M01 A3036 RMK AO2 T00051007
KLNC 111235Z AUTO 00000KT 10SM CLR 01/M01 A3036 RMK AO2 T00051007
KLNC 111215Z AUTO 00000KT 10SM CLR 00/M01 A3036 RMK AO2 T00031006
KLNC 111155Z AUTO 00000KT 10SM CLR 00/M01 A3035 RMK AO2 T00041006 10035 20003
KLNC 111135Z AUTO 00000KT 10SM CLR 00/M01 A3035 RMK AO2 T00031009
KLNC 111115Z AUTO 00000KT 10SM CLR 01/M01 A3035 RMK AO2 T00071007
KLNC 111055Z AUTO 00000KT 10SM CLR 01/00 A3035 RMK AO2 T00101005
KLNC 111035Z AUTO 00000KT 10SM CLR 01/M01 A3035 RMK AO2 T00051008
KLNC 111015Z AUTO 00000KT 10SM CLR 01/M01 A3035 RMK AO2 T00081008
KLNC 110955Z AUTO 00000KT 10SM CLR 02/00 A3035 RMK AO2 T00151004
KLNC 110935Z AUTO 00000KT 10SM CLR 02/00 A3036 RMK AO2 T00171003
KLNC 110915Z AUTO 00000KT 10SM CLR 02/00 A3037 RMK AO2 T00151005
KLNC 110855Z AUTO 00000KT 10SM CLR 01/00 A3037 RMK AO2 T00101005
KLNC 110835Z AUTO 00000KT 10SM CLR 01/M01 A3038 RMK AO2 T00131006
KLNC 110815Z AUTO 00000KT 10SM CLR 02/00 A3037 RMK AO2 T00211002
KLNC 110755Z AUTO 00000KT 10SM CLR 02/00 A3037 RMK AO2 T00220000
KLNC 110735Z AUTO 00000KT 10SM CLR 02/00 A3037 RMK AO2 T00200000
KLNC 110715Z AUTO 00000KT 10SM CLR 02/00 A3037 RMK AO2 T00210000
KLNC 110655Z AUTO 00000KT 10SM CLR 03/00 A3038 RMK AO2 T00250002
KLNC 110635Z AUTO 00000KT 10SM CLR 03/00 A3038 RMK AO2 T00270002
KLNC 110615Z AUTO 00000KT 10SM CLR 03/00 A3038 RMK AO2 T00330002
KLNC 110555Z AUTO 00000KT 10SM CLR 03/00 A3038 RMK AO2 T00300004 10097 20028 401340000
KLNC 110535Z AUTO 00000KT 10SM CLR 04/00 A3038 RMK AO2 T00370000
KLNC 110515Z AUTO 00000KT 10SM CLR 04/00 A3038 RMK AO2 T00410002
KLNC 110455Z AUTO 00000KT 10SM CLR 05/00 A3038 RMK AO2 T00450000
KLNC 110435Z AUTO 00000KT 10SM CLR 05/00 A3038 RMK AO2 T00450001
KLNC 110415Z AUTO 00000KT 10SM CLR 05/01 A3038 RMK AO2 T00470005
KLNC 110355Z AUTO 00000KT 10SM CLR 05/01 A3038 RMK AO2 T00460007
KLNC 110335Z AUTO 00000KT 10SM CLR 05/01 A3037 RMK AO2 T00510005
KLNC 110315Z AUTO 00000KT 10SM CLR 06/00 A3037 RMK AO2 T00570001
KLNC 110255Z AUTO 00000KT 10SM CLR 06/00 A3037 RMK AO2 T00610000
KLNC 110235Z AUTO 00000KT 10SM CLR 06/00 A3038 RMK AO2 T00610002
KLNC 110215Z AUTO 00000KT 10SM CLR 07/00 A3038 RMK AO2 T00650003
KLNC 110155Z AUTO 00000KT 10SM CLR 06/00 A3037 RMK AO2 T00640000
KLNC 110135Z AUTO 00000KT 10SM CLR 07/01 A3037 RMK AO2 T00660005
KLNC 110115Z AUTO 18003KT 10SM CLR 07/00 A3037 RMK AO2 T00741001
KLNC 110055Z AUTO 18004KT 10SM CLR 08/00 A3037 RMK AO2 T00751001
KLNC 110035Z AUTO 17003KT 10SM CLR 07/00 A3036 RMK AO2 T00730003
KLNC 110015Z AUTO 16003KT 10SM CLR 09/01 A3036 RMK AO2 T00860008
KLNC 102355Z AUTO 00000KT 10SM CLR 10/00 A3035 RMK AO2 T00970002 10134 20097
KLNC 102335Z AUTO 00000KT 10SM CLR 10/02 A3035 RMK AO2 T00980021
KLNC 102315Z AUTO 00000KT 10SM CLR 11/01 A3035 RMK AO2 T01140014
KLNC 102255Z AUTO 00000KT 10SM CLR 12/01 A3035 RMK AO2 T01240008
KLNC 102235Z AUTO 00000KT 10SM CLR 13/M01 A3035 RMK AO2 T01301010
KLNC 102215Z AUTO 00000KT 10SM CLR 13/M02 A3035 RMK AO2 T01311025
KLNC 102155Z AUTO 00000KT 10SM CLR 13/M02 A3035 RMK AO2 T01311016
KLNC 102135Z AUTO 00000KT 10SM CLR 13/M02 A3035 RMK AO2 T01301017
KLNC 102115Z AUTO 00000KT 10SM CLR 13/M02 A3035 RMK AO2 T01301023
KLNC 102055Z AUTO 00000KT 10SM CLR 13/M03 A3035 RMK AO2 T01281029
KLNC 102035Z AUTO 00000KT 10SM CLR 13/M01 A3035 RMK AO2 T01281013
KLNC 102015Z AUTO 33004KT 10SM CLR 13/M01 A3035 RMK AO2 T01281010
KLNC 101955Z AUTO 00000KT 10SM CLR 12/M02 A3035 RMK AO2 T01221024
KLNC 101935Z AUTO 00000KT 10SM CLR 12/M02 A3036 RMK AO2 T01201016
KLNC 101915Z AUTO 00000KT 10SM CLR 12/M01 A3037 RMK AO2 T01181010
KLNC 101855Z AUTO 34003KT 10SM CLR 12/00 A3037 RMK AO2 T01181003
KLNC 101835Z AUTO 00000KT 10SM CLR 11/M01 A3038 RMK AO2 T01131011
KLNC 101815Z AUTO 00000KT 10SM CLR 11/M01 A3039 RMK AO2 T01071015
KLNC 101755Z AUTO 00000KT 10SM CLR 11/M01 A3041 RMK AO2 T01071009 10107 20000
KLNC 101735Z AUTO 00000KT 10SM CLR 10/M01 A3042 RMK AO2 T01001007
KLNC 101715Z AUTO 00000KT 10SM CLR 10/00 A3042 RMK AO2 T00960000
KLNC 101655Z AUTO 00000KT 10SM CLR 09/00 A3042 RMK AO2 T00891003
KLNC 101635Z AUTO 00000KT 10SM CLR 08/01 A3042 RMK AO2 T00770005
KLNC 101615Z AUTO 00000KT 10SM CLR 07/00 A3043 RMK AO2 T00680003
KLNC 101555Z AUTO 00000KT 10SM CLR 06/01 A3042 RMK AO2 T00610005
KLNC 101535Z AUTO 32003KT 10SM CLR 05/00 A3042 RMK AO2 T00510002
KLNC 101515Z AUTO 33004KT 10SM CLR 04/00 A3041 RMK AO2 T00410002
KLNC 101455Z AUTO 00000KT 10SM CLR 02/00 A3041 RMK AO2 T00231001
KLNC 101435Z AUTO 00000KT 10SM CLR 01/00 A3040 RMK AO2 T00141001
KLNC 101415Z AUTO 00000KT 7SM CLR 01/00 A3039 RMK AO2 T00061005
KLNC 101355Z AUTO 00000KT 10SM CLR 00/M01 A3039 RMK AO2 T00011013
KLNC 101335Z AUTO 00000KT 10SM CLR 00/M01 A3039 RMK AO2 T00041013
KLNC 101315Z AUTO 00000KT 10SM CLR 00/M01 A3038 RMK AO2 T00031011
KLNC 101255Z AUTO 00000KT 10SM CLR 01/M01 A3037 RMK AO2 T00051011
KLNC 101235Z AUTO 27005KT 10SM CLR 01/M01 A3037 RMK AO2 T00061013
KLNC 101215Z AUTO 28003KT 10SM CLR 00/M01 A3037 RMK AO2 T00031015
KLNC 101155Z AUTO 00000KT 10SM CLR 00/M02 A3036 RMK AO2 T00041016 10033 20000
KLNC 101135Z AUTO 00000KT 10SM CLR 00/M02 A3036 RMK AO2 T00001017
KLNC 101115Z AUTO 27004KT 10SM CLR 00/M01 A3036 RMK AO2 T00021015
KLNC 101055Z AUTO 28004KT 10SM CLR 00/M01 A3036 RMK AO2 T00001015
KLNC 101035Z AUTO 27003KT 10SM CLR 00/M01 A3035 RMK AO2 T00001015
KLNC 101015Z AUTO 00000KT 10SM CLR 00/M01 A3036 RMK AO2 T00031015
KLNC 100955Z AUTO 28003KT 10SM CLR 01/M01 A3036 RMK AO2 T00091015
KLNC 100935Z AUTO 29004KT 10SM CLR 01/M01 A3035 RMK AO2 T00141013
KLNC 100915Z AUTO 31004KT 10SM CLR 01/M01 A3036 RMK AO2 T00091011
KLNC 100855Z AUTO 29004KT 10SM CLR 01/M01 A3037 RMK AO2 T00071012
KLNC 100835Z AUTO 00000KT 10SM CLR 01/M01 A3036 RMK AO2 T00051012
KLNC 100815Z AUTO 28003KT 10SM CLR 01/M01 A3036 RMK AO2 T00101012
KLNC 100755Z AUTO 29004KT 10SM CLR 02/M01 A3036 RMK AO2 T00161010
KLNC 100735Z AUTO 30004KT 10SM CLR 01/M01 A3036 RMK AO2 T00111010
KLNC 100715Z AUTO 29003KT 10SM CLR 02/M01 A3036 RMK AO2 T00201010
KLNC 100655Z AUTO 29004KT 10SM CLR 02/M01 A3037 RMK AO2 T00231009
KLNC 100635Z AUTO 30003KT 10SM CLR 03/00 A3037 RMK AO2 T00301005
KLNC 100615Z AUTO 30003KT 10SM CLR 03/00 A3038 RMK AO2 T00281005
KLNC 100555Z AUTO 30003KT 10SM CLR 03/00 A3038 RMK AO2 T00341003 10071 20034 401000030
KLNC 100535Z AUTO 30005KT 10SM CLR 04/00 A3038 RMK AO2 T00371002
KLNC 100515Z AUTO 30005KT 10SM CLR 04/00 A3038 RMK AO2 T00370000
KLNC 100455Z AUTO 31005KT 10SM CLR 04/00 A3038 RMK AO2 T00390000
KLNC 100435Z AUTO 31005KT 10SM CLR 04/00 A3038 RMK AO2 T00400000
KLNC 100415Z AUTO 31006KT 10SM CLR 04/00 A3038 RMK AO2 T00420001
KLNC 100355Z AUTO 30006KT 10SM CLR 05/00 A3038 RMK AO2 T00450002
KLNC 100335Z AUTO 31006KT 10SM CLR 05/00 A3037 RMK AO2 T00470004
KLNC 100315Z AUTO 31006KT 10SM CLR 05/01 A3037 RMK AO2 T00490005
KLNC 100255Z AUTO 31006KT 10SM CLR 05/01 A3036 RMK AO2 T00500010
KLNC 100235Z AUTO 31005KT 10SM CLR 05/01 A3036 RMK AO2 T00500011
KLNC 100215Z AUTO 31004KT 10SM CLR 05/02 A3036 RMK AO2 T00510015
KLNC 100155Z AUTO 31005KT 10SM CLR 06/02 A3035 RMK AO2 T00550019
KLNC 100135Z AUTO 31005KT 10SM CLR 06/02 A3035 RMK AO2 T00550021
KLNC 100115Z AUTO 31004KT 10SM CLR 06/03 A3034 RMK AO2 T00550025